sensor_id;sensor_type;location;lat;lon;timestamp;P1;durP1;ratioP1;P2;durP2;ratioP2
58071;SDS011;60383;46.626;18.866;2023-07-02T00:00:02;5.35;;;3.30;;
58071;SDS011;60383;46.626;18.866;2023-07-02T00:02:30;5.03;;;3.40;;
58071;SDS011;60383;46.626;18.866;2023-07-02T00:04:55;4.07;;;3.38;;
58071;SDS011;60383;46.626;18.866;2023-07-02T00:07:21;5.72;;;3.65;;
58071;SDS011;60383;46.626;18.866;2023-07-02T00:09:46;4.95;;;3.47;;
58071;SDS011;60383;46.626;18.866;2023-07-02T00:12:12;4.65;;;3.65;;
58071;SDS011;60383;46.626;18.866;2023-07-02T00:14:38;4.43;;;3.10;;
58071;SDS011;60383;46.626;18.866;2023-07-02T00:17:04;4.75;;;3.80;;
58071;SDS011;60383;46.626;18.866;2023-07-02T00:19:29;4.72;;;3.40;;
58071;SDS011;60383;46.626;18.866;2023-07-02T00:21:55;4.35;;;3.60;;
58071;SDS011;60383;46.626;18.866;2023-07-02T00:24:21;6.07;;;3.38;;
58071;SDS011;60383;46.626;18.866;2023-07-02T00:26:46;5.57;;;3.60;;
58071;SDS011;60383;46.626;18.866;2023-07-02T00:29:12;4.75;;;4.00;;
58071;SDS011;60383;46.626;18.866;2023-07-02T00:31:37;5.82;;;3.88;;
58071;SDS011;60383;46.626;18.866;2023-07-02T00:34:03;5.13;;;3.47;;
58071;SDS011;60383;46.626;18.866;2023-07-02T00:36:29;5.40;;;3.55;;
58071;SDS011;60383;46.626;18.866;2023-07-02T00:38:56;5.05;;;3.75;;
58071;SDS011;60383;46.626;18.866;2023-07-02T00:41:22;4.40;;;3.55;;
58071;SDS011;60383;46.626;18.866;2023-07-02T00:43:48;6.25;;;3.72;;
58071;SDS011;60383;46.626;18.866;2023-07-02T00:46:14;5.82;;;4.22;;
58071;SDS011;60383;46.626;18.866;2023-07-02T00:48:47;7.97;;;4.28;;
58071;SDS011;60383;46.626;18.866;2023-07-02T00:51:17;5.22;;;3.90;;
58071;SDS011;60383;46.626;18.866;2023-07-02T00:53:44;5.78;;;4.25;;
58071;SDS011;60383;46.626;18.866;2023-07-02T00:56:11;5.47;;;3.97;;
58071;SDS011;60383;46.626;18.866;2023-07-02T00:58:44;5.20;;;4.15;;
58071;SDS011;60383;46.626;18.866;2023-07-02T01:01:19;6.35;;;4.18;;
58071;SDS011;60383;46.626;18.866;2023-07-02T01:06:24;4.78;;;3.80;;
58071;SDS011;60383;46.626;18.866;2023-07-02T01:08:54;4.95;;;3.88;;
58071;SDS011;60383;46.626;18.866;2023-07-02T01:11:21;6.82;;;4.65;;
58071;SDS011;60383;46.626;18.866;2023-07-02T01:13:50;5.82;;;4.40;;
58071;SDS011;60383;46.626;18.866;2023-07-02T01:16:19;5.65;;;3.92;;
58071;SDS011;60383;46.626;18.866;2023-07-02T01:18:47;5.57;;;4.53;;
58071;SDS011;60383;46.626;18.866;2023-07-02T01:21:15;5.45;;;3.97;;
58071;SDS011;60383;46.626;18.866;2023-07-02T01:23:41;5.53;;;4.15;;
58071;SDS011;60383;46.626;18.866;2023-07-02T01:26:08;6.30;;;4.47;;
58071;SDS011;60383;46.626;18.866;2023-07-02T01:28:34;6.32;;;4.28;;
58071;SDS011;60383;46.626;18.866;2023-07-02T01:31:04;6.60;;;4.35;;
58071;SDS011;60383;46.626;18.866;2023-07-02T01:33:30;5.43;;;4.38;;
58071;SDS011;60383;46.626;18.866;2023-07-02T01:35:56;5.55;;;3.95;;
58071;SDS011;60383;46.626;18.866;2023-07-02T01:38:22;5.60;;;4.28;;
58071;SDS011;60383;46.626;18.866;2023-07-02T01:40:47;6.07;;;4.18;;
58071;SDS011;60383;46.626;18.866;2023-07-02T01:43:13;6.53;;;4.38;;
58071;SDS011;60383;46.626;18.866;2023-07-02T01:45:40;5.25;;;4.13;;
58071;SDS011;60383;46.626;18.866;2023-07-02T01:48:06;5.25;;;3.90;;
58071;SDS011;60383;46.626;18.866;2023-07-02T01:50:32;5.70;;;4.30;;
58071;SDS011;60383;46.626;18.866;2023-07-02T01:52:57;6.00;;;4.10;;
58071;SDS011;60383;46.626;18.866;2023-07-02T01:55:22;5.80;;;4.15;;
58071;SDS011;60383;46.626;18.866;2023-07-02T01:57:48;8.88;;;4.20;;
58071;SDS011;60383;46.626;18.866;2023-07-02T02:00:13;6.43;;;4.15;;
58071;SDS011;60383;46.626;18.866;2023-07-02T02:02:39;6.40;;;4.07;;
58071;SDS011;60383;46.626;18.866;2023-07-02T02:05:05;4.70;;;3.65;;
58071;SDS011;60383;46.626;18.866;2023-07-02T02:07:30;6.30;;;4.20;;
58071;SDS011;60383;46.626;18.866;2023-07-02T02:09:57;5.82;;;4.30;;
58071;SDS011;60383;46.626;18.866;2023-07-02T02:12:23;5.38;;;4.05;;
58071;SDS011;60383;46.626;18.866;2023-07-02T02:14:48;5.80;;;4.32;;
58071;SDS011;60383;46.626;18.866;2023-07-02T02:17:14;4.93;;;3.92;;
58071;SDS011;60383;46.626;18.866;2023-07-02T02:19:39;5.50;;;4.40;;
58071;SDS011;60383;46.626;18.866;2023-07-02T02:22:04;5.65;;;4.50;;
58071;SDS011;60383;46.626;18.866;2023-07-02T02:24:30;5.80;;;4.40;;
58071;SDS011;60383;46.626;18.866;2023-07-02T02:26:55;6.75;;;4.85;;
58071;SDS011;60383;46.626;18.866;2023-07-02T02:29:21;6.57;;;4.80;;
58071;SDS011;60383;46.626;18.866;2023-07-02T02:31:46;6.20;;;4.40;;
58071;SDS011;60383;46.626;18.866;2023-07-02T02:34:12;5.22;;;4.63;;
58071;SDS011;60383;46.626;18.866;2023-07-02T02:36:37;6.30;;;4.20;;
58071;SDS011;60383;46.626;18.866;2023-07-02T02:39:03;5.80;;;4.90;;
58071;SDS011;60383;46.626;18.866;2023-07-02T02:41:30;7.47;;;4.93;;
58071;SDS011;60383;46.626;18.866;2023-07-02T02:43:56;6.80;;;5.03;;
58071;SDS011;60383;46.626;18.866;2023-07-02T02:46:21;6.82;;;5.25;;
58071;SDS011;60383;46.626;18.866;2023-07-02T02:48:48;7.32;;;5.40;;
58071;SDS011;60383;46.626;18.866;2023-07-02T02:51:14;6.70;;;4.80;;
58071;SDS011;60383;46.626;18.866;2023-07-02T02:53:39;7.32;;;5.40;;
58071;SDS011;60383;46.626;18.866;2023-07-02T02:56:05;7.38;;;5.47;;
58071;SDS011;60383;46.626;18.866;2023-07-02T02:58:30;6.68;;;5.05;;
58071;SDS011;60383;46.626;18.866;2023-07-02T03:00:56;6.40;;;4.97;;
58071;SDS011;60383;46.626;18.866;2023-07-02T03:03:22;7.05;;;5.03;;
58071;SDS011;60383;46.626;18.866;2023-07-02T03:05:49;6.68;;;4.55;;
58071;SDS011;60383;46.626;18.866;2023-07-02T03:08:15;6.15;;;4.80;;
58071;SDS011;60383;46.626;18.866;2023-07-02T03:10:41;5.95;;;4.88;;
58071;SDS011;60383;46.626;18.866;2023-07-02T03:13:07;8.68;;;5.45;;
58071;SDS011;60383;46.626;18.866;2023-07-02T03:15:32;8.32;;;5.47;;
58071;SDS011;60383;46.626;18.866;2023-07-02T03:17:58;6.15;;;4.78;;
58071;SDS011;60383;46.626;18.866;2023-07-02T03:20:23;8.30;;;5.50;;
58071;SDS011;60383;46.626;18.866;2023-07-02T03:22:49;7.28;;;5.25;;
58071;SDS011;60383;46.626;18.866;2023-07-02T03:25:14;6.40;;;4.57;;
58071;SDS011;60383;46.626;18.866;2023-07-02T03:27:41;6.18;;;4.57;;
58071;SDS011;60383;46.626;18.866;2023-07-02T03:30:06;6.13;;;4.63;;
58071;SDS011;60383;46.626;18.866;2023-07-02T03:32:32;4.60;;;3.65;;
58071;SDS011;60383;46.626;18.866;2023-07-02T03:34:58;5.60;;;3.97;;
58071;SDS011;60383;46.626;18.866;2023-07-02T03:37:23;5.32;;;3.90;;
58071;SDS011;60383;46.626;18.866;2023-07-02T03:39:49;4.85;;;3.50;;
58071;SDS011;60383;46.626;18.866;2023-07-02T03:42:15;5.35;;;3.50;;
58071;SDS011;60383;46.626;18.866;2023-07-02T03:44:41;8.30;;;4.40;;
58071;SDS011;60383;46.626;18.866;2023-07-02T03:47:06;5.45;;;3.55;;
58071;SDS011;60383;46.626;18.866;2023-07-02T03:49:33;4.53;;;3.33;;
58071;SDS011;60383;46.626;18.866;2023-07-02T03:51:59;5.68;;;3.45;;
58071;SDS011;60383;46.626;18.866;2023-07-02T03:54:24;4.90;;;3.08;;
58071;SDS011;60383;46.626;18.866;2023-07-02T03:56:50;4.43;;;3.00;;
58071;SDS011;60383;46.626;18.866;2023-07-02T03:59:15;6.00;;;3.28;;
58071;SDS011;60383;46.626;18.866;2023-07-02T04:01:41;4.55;;;2.70;;
58071;SDS011;60383;46.626;18.866;2023-07-02T04:04:06;4.18;;;2.83;;
58071;SDS011;60383;46.626;18.866;2023-07-02T04:06:32;3.92;;;2.92;;
58071;SDS011;60383;46.626;18.866;2023-07-02T04:08:59;5.30;;;2.92;;
58071;SDS011;60383;46.626;18.866;2023-07-02T04:11:24;5.45;;;2.92;;
58071;SDS011;60383;46.626;18.866;2023-07-02T04:13:50;4.70;;;3.33;;
58071;SDS011;60383;46.626;18.866;2023-07-02T04:16:15;4.70;;;3.15;;
58071;SDS011;60383;46.626;18.866;2023-07-02T04:18:41;5.47;;;2.95;;
58071;SDS011;60383;46.626;18.866;2023-07-02T04:21:06;5.38;;;3.28;;
58071;SDS011;60383;46.626;18.866;2023-07-02T04:23:32;5.13;;;2.83;;
58071;SDS011;60383;46.626;18.866;2023-07-02T04:25:57;5.03;;;3.33;;
58071;SDS011;60383;46.626;18.866;2023-07-02T04:28:23;5.07;;;3.35;;
58071;SDS011;60383;46.626;18.866;2023-07-02T04:30:48;5.47;;;3.83;;
58071;SDS011;60383;46.626;18.866;2023-07-02T04:33:16;5.70;;;3.45;;
58071;SDS011;60383;46.626;18.866;2023-07-02T04:35:42;4.72;;;3.28;;
58071;SDS011;60383;46.626;18.866;2023-07-02T04:38:08;4.88;;;2.70;;
58071;SDS011;60383;46.626;18.866;2023-07-02T04:40:33;4.75;;;3.00;;
58071;SDS011;60383;46.626;18.866;2023-07-02T04:42:59;5.18;;;2.95;;
58071;SDS011;60383;46.626;18.866;2023-07-02T04:45:25;4.90;;;3.00;;
58071;SDS011;60383;46.626;18.866;2023-07-02T04:47:52;5.68;;;3.40;;
58071;SDS011;60383;46.626;18.866;2023-07-02T04:50:18;6.13;;;3.28;;
58071;SDS011;60383;46.626;18.866;2023-07-02T04:52:43;6.65;;;3.45;;
58071;SDS011;60383;46.626;18.866;2023-07-02T04:55:09;5.53;;;3.08;;
58071;SDS011;60383;46.626;18.866;2023-07-02T04:57:35;4.07;;;2.65;;
58071;SDS011;60383;46.626;18.866;2023-07-02T05:00:00;4.53;;;2.95;;
58071;SDS011;60383;46.626;18.866;2023-07-02T05:02:28;5.45;;;3.20;;
58071;SDS011;60383;46.626;18.866;2023-07-02T05:04:54;4.00;;;2.90;;
58071;SDS011;60383;46.626;18.866;2023-07-02T05:07:19;5.15;;;3.22;;
58071;SDS011;60383;46.626;18.866;2023-07-02T05:09:45;4.05;;;2.97;;
58071;SDS011;60383;46.626;18.866;2023-07-02T05:12:10;4.32;;;3.13;;
58071;SDS011;60383;46.626;18.866;2023-07-02T05:14:36;4.78;;;2.95;;
58071;SDS011;60383;46.626;18.866;2023-07-02T05:17:02;4.03;;;2.70;;
58071;SDS011;60383;46.626;18.866;2023-07-02T05:19:28;3.78;;;2.55;;
58071;SDS011;60383;46.626;18.866;2023-07-02T05:21:53;3.50;;;2.80;;
58071;SDS011;60383;46.626;18.866;2023-07-02T05:24:19;5.25;;;3.20;;
58071;SDS011;60383;46.626;18.866;2023-07-02T05:26:44;5.60;;;3.00;;
58071;SDS011;60383;46.626;18.866;2023-07-02T05:29:10;3.95;;;3.13;;
58071;SDS011;60383;46.626;18.866;2023-07-02T05:31:35;2.88;;;2.33;;
58071;SDS011;60383;46.626;18.866;2023-07-02T05:34:01;4.38;;;3.25;;
58071;SDS011;60383;46.626;18.866;2023-07-02T05:36:26;3.53;;;2.70;;
58071;SDS011;60383;46.626;18.866;2023-07-02T05:38:52;3.83;;;2.90;;
58071;SDS011;60383;46.626;18.866;2023-07-02T05:41:21;4.47;;;3.00;;
58071;SDS011;60383;46.626;18.866;2023-07-02T05:43:47;3.92;;;3.00;;
58071;SDS011;60383;46.626;18.866;2023-07-02T05:46:12;4.32;;;2.90;;
58071;SDS011;60383;46.626;18.866;2023-07-02T05:48:39;3.50;;;3.00;;
58071;SDS011;60383;46.626;18.866;2023-07-02T05:51:05;2.80;;;2.47;;
58071;SDS011;60383;46.626;18.866;2023-07-02T05:53:31;3.10;;;2.60;;
58071;SDS011;60383;46.626;18.866;2023-07-02T05:55:57;4.97;;;2.70;;
58071;SDS011;60383;46.626;18.866;2023-07-02T05:58:22;4.65;;;2.90;;
58071;SDS011;60383;46.626;18.866;2023-07-02T06:00:47;3.88;;;2.60;;
58071;SDS011;60383;46.626;18.866;2023-07-02T06:03:15;5.25;;;3.22;;
58071;SDS011;60383;46.626;18.866;2023-07-02T06:05:45;3.63;;;2.90;;
58071;SDS011;60383;46.626;18.866;2023-07-02T06:08:12;4.88;;;3.28;;
58071;SDS011;60383;46.626;18.866;2023-07-02T06:10:37;4.93;;;3.72;;
58071;SDS011;60383;46.626;18.866;2023-07-02T06:13:02;4.05;;;3.22;;
58071;SDS011;60383;46.626;18.866;2023-07-02T06:15:28;5.10;;;3.40;;
58071;SDS011;60383;46.626;18.866;2023-07-02T06:17:54;4.50;;;3.03;;
58071;SDS011;60383;46.626;18.866;2023-07-02T06:20:19;3.70;;;2.83;;
58071;SDS011;60383;46.626;18.866;2023-07-02T06:22:44;4.50;;;2.90;;
58071;SDS011;60383;46.626;18.866;2023-07-02T06:25:10;3.50;;;2.72;;
58071;SDS011;60383;46.626;18.866;2023-07-02T06:27:35;4.25;;;2.58;;
58071;SDS011;60383;46.626;18.866;2023-07-02T06:30:01;4.63;;;3.10;;
58071;SDS011;60383;46.626;18.866;2023-07-02T06:32:27;7.25;;;4.97;;
58071;SDS011;60383;46.626;18.866;2023-07-02T06:34:52;3.92;;;3.10;;
58071;SDS011;60383;46.626;18.866;2023-07-02T06:37:18;4.00;;;2.80;;
58071;SDS011;60383;46.626;18.866;2023-07-02T06:39:43;3.60;;;2.70;;
58071;SDS011;60383;46.626;18.866;2023-07-02T06:42:08;3.53;;;3.00;;
58071;SDS011;60383;46.626;18.866;2023-07-02T06:44:34;4.68;;;2.60;;
58071;SDS011;60383;46.626;18.866;2023-07-02T06:46:59;5.82;;;2.90;;
58071;SDS011;60383;46.626;18.866;2023-07-02T06:49:25;4.07;;;2.90;;
58071;SDS011;60383;46.626;18.866;2023-07-02T06:51:50;3.40;;;3.03;;
58071;SDS011;60383;46.626;18.866;2023-07-02T06:54:16;5.72;;;3.60;;
58071;SDS011;60383;46.626;18.866;2023-07-02T06:56:41;3.67;;;2.90;;
58071;SDS011;60383;46.626;18.866;2023-07-02T06:59:07;5.57;;;3.38;;
58071;SDS011;60383;46.626;18.866;2023-07-02T07:01:32;5.35;;;3.40;;
58071;SDS011;60383;46.626;18.866;2023-07-02T07:03:57;5.85;;;3.35;;
58071;SDS011;60383;46.626;18.866;2023-07-02T07:06:24;3.75;;;2.70;;
58071;SDS011;60383;46.626;18.866;2023-07-02T07:08:49;4.03;;;3.08;;
58071;SDS011;60383;46.626;18.866;2023-07-02T07:11:15;3.97;;;3.13;;
58071;SDS011;60383;46.626;18.866;2023-07-02T07:13:41;5.22;;;3.45;;
58071;SDS011;60383;46.626;18.866;2023-07-02T07:16:08;3.58;;;3.05;;
58071;SDS011;60383;46.626;18.866;2023-07-02T07:18:34;4.57;;;3.28;;
58071;SDS011;60383;46.626;18.866;2023-07-02T07:20:59;4.30;;;2.80;;
58071;SDS011;60383;46.626;18.866;2023-07-02T07:23:25;4.05;;;2.75;;
58071;SDS011;60383;46.626;18.866;2023-07-02T07:25:50;3.97;;;2.67;;
58071;SDS011;60383;46.626;18.866;2023-07-02T07:28:16;3.67;;;3.10;;
58071;SDS011;60383;46.626;18.866;2023-07-02T07:30:45;3.67;;;2.80;;
58071;SDS011;60383;46.626;18.866;2023-07-02T07:33:10;2.95;;;2.50;;
58071;SDS011;60383;46.626;18.866;2023-07-02T07:35:36;3.42;;;2.83;;
58071;SDS011;60383;46.626;18.866;2023-07-02T07:38:02;3.80;;;2.85;;
58071;SDS011;60383;46.626;18.866;2023-07-02T07:40:28;4.07;;;2.50;;
58071;SDS011;60383;46.626;18.866;2023-07-02T07:42:54;3.38;;;2.75;;
58071;SDS011;60383;46.626;18.866;2023-07-02T07:45:19;3.78;;;2.60;;
58071;SDS011;60383;46.626;18.866;2023-07-02T07:47:45;3.83;;;2.75;;
58071;SDS011;60383;46.626;18.866;2023-07-02T07:50:10;3.83;;;3.40;;
58071;SDS011;60383;46.626;18.866;2023-07-02T07:52:36;4.20;;;3.03;;
58071;SDS011;60383;46.626;18.866;2023-07-02T07:55:03;5.05;;;2.90;;
58071;SDS011;60383;46.626;18.866;2023-07-02T07:57:29;4.05;;;3.10;;
58071;SDS011;60383;46.626;18.866;2023-07-02T07:59:54;4.28;;;3.00;;
58071;SDS011;60383;46.626;18.866;2023-07-02T08:02:20;2.95;;;2.65;;
58071;SDS011;60383;46.626;18.866;2023-07-02T08:04:47;8.15;;;3.15;;
58071;SDS011;60383;46.626;18.866;2023-07-02T08:07:13;4.18;;;2.60;;
58071;SDS011;60383;46.626;18.866;2023-07-02T08:09:39;4.68;;;3.22;;
58071;SDS011;60383;46.626;18.866;2023-07-02T08:12:04;3.30;;;2.42;;
58071;SDS011;60383;46.626;18.866;2023-07-02T08:14:30;2.50;;;2.10;;
58071;SDS011;60383;46.626;18.866;2023-07-02T08:16:55;3.15;;;2.25;;
58071;SDS011;60383;46.626;18.866;2023-07-02T08:19:21;3.38;;;2.60;;
58071;SDS011;60383;46.626;18.866;2023-07-02T08:21:47;3.20;;;2.13;;
58071;SDS011;60383;46.626;18.866;2023-07-02T08:24:12;2.45;;;2.08;;
58071;SDS011;60383;46.626;18.866;2023-07-02T08:26:38;2.60;;;2.40;;
58071;SDS011;60383;46.626;18.866;2023-07-02T08:29:04;2.90;;;2.20;;
58071;SDS011;60383;46.626;18.866;2023-07-02T08:31:29;2.70;;;2.50;;
58071;SDS011;60383;46.626;18.866;2023-07-02T08:33:55;3.05;;;2.22;;
58071;SDS011;60383;46.626;18.866;2023-07-02T08:36:20;3.15;;;2.58;;
58071;SDS011;60383;46.626;18.866;2023-07-02T08:38:46;3.00;;;2.33;;
58071;SDS011;60383;46.626;18.866;2023-07-02T08:41:11;2.85;;;2.50;;
58071;SDS011;60383;46.626;18.866;2023-07-02T08:43:37;4.13;;;2.33;;
58071;SDS011;60383;46.626;18.866;2023-07-02T08:46:02;3.85;;;2.35;;
58071;SDS011;60383;46.626;18.866;2023-07-02T08:48:29;2.78;;;2.30;;
58071;SDS011;60383;46.626;18.866;2023-07-02T08:50:55;3.70;;;2.30;;
58071;SDS011;60383;46.626;18.866;2023-07-02T08:53:21;3.92;;;2.47;;
58071;SDS011;60383;46.626;18.866;2023-07-02T08:55:54;2.80;;;2.20;;
58071;SDS011;60383;46.626;18.866;2023-07-02T08:58:23;4.55;;;2.40;;
58071;SDS011;60383;46.626;18.866;2023-07-02T09:03:37;3.05;;;2.20;;
58071;SDS011;60383;46.626;18.866;2023-07-02T09:06:04;3.88;;;2.40;;
58071;SDS011;60383;46.626;18.866;2023-07-02T09:08:30;2.63;;;2.20;;
58071;SDS011;60383;46.626;18.866;2023-07-02T09:11:05;2.85;;;2.33;;
58071;SDS011;60383;46.626;18.866;2023-07-02T09:13:31;3.25;;;2.33;;
58071;SDS011;60383;46.626;18.866;2023-07-02T09:15:56;3.70;;;2.22;;
58071;SDS011;60383;46.626;18.866;2023-07-02T09:18:22;4.15;;;2.30;;
58071;SDS011;60383;46.626;18.866;2023-07-02T09:20:54;3.17;;;2.20;;
58071;SDS011;60383;46.626;18.866;2023-07-02T09:23:20;2.67;;;2.30;;
58071;SDS011;60383;46.626;18.866;2023-07-02T09:25:46;3.78;;;2.35;;
58071;SDS011;60383;46.626;18.866;2023-07-02T09:28:29;3.13;;;2.05;;
58071;SDS011;60383;46.626;18.866;2023-07-02T09:30:55;2.45;;;2.25;;
58071;SDS011;60383;46.626;18.866;2023-07-02T09:33:23;2.92;;;2.15;;
58071;SDS011;60383;46.626;18.866;2023-07-02T09:38:19;2.95;;;1.88;;
58071;SDS011;60383;46.626;18.866;2023-07-02T09:40:45;2.75;;;2.03;;
58071;SDS011;60383;46.626;18.866;2023-07-02T09:43:13;3.38;;;2.28;;
58071;SDS011;60383;46.626;18.866;2023-07-02T09:45:41;2.97;;;2.42;;
58071;SDS011;60383;46.626;18.866;2023-07-02T09:48:16;2.58;;;2.33;;
58071;SDS011;60383;46.626;18.866;2023-07-02T09:50:43;4.03;;;2.20;;
58071;SDS011;60383;46.626;18.866;2023-07-02T09:53:10;2.50;;;2.28;;
58071;SDS011;60383;46.626;18.866;2023-07-02T09:55:39;3.08;;;2.00;;
58071;SDS011;60383;46.626;18.866;2023-07-02T09:58:08;3.20;;;2.53;;
58071;SDS011;60383;46.626;18.866;2023-07-02T10:00:33;2.97;;;2.28;;
58071;SDS011;60383;46.626;18.866;2023-07-02T10:02:59;2.78;;;2.47;;
58071;SDS011;60383;46.626;18.866;2023-07-02T10:05:27;2.20;;;2.00;;
58071;SDS011;60383;46.626;18.866;2023-07-02T10:07:59;3.28;;;2.00;;
58071;SDS011;60383;46.626;18.866;2023-07-02T10:10:38;3.40;;;2.08;;
58071;SDS011;60383;46.626;18.866;2023-07-02T10:13:04;3.67;;;2.20;;
58071;SDS011;60383;46.626;18.866;2023-07-02T10:15:30;2.42;;;2.00;;
58071;SDS011;60383;46.626;18.866;2023-07-02T10:18:00;2.33;;;1.90;;
58071;SDS011;60383;46.626;18.866;2023-07-02T10:20:37;3.97;;;2.28;;
58071;SDS011;60383;46.626;18.866;2023-07-02T10:23:05;2.70;;;2.17;;
58071;SDS011;60383;46.626;18.866;2023-07-02T10:25:36;2.60;;;2.05;;
58071;SDS011;60383;46.626;18.866;2023-07-02T10:28:16;2.70;;;2.10;;
58071;SDS011;60383;46.626;18.866;2023-07-02T10:30:44;3.08;;;2.00;;
58071;SDS011;60383;46.626;18.866;2023-07-02T10:33:11;2.88;;;2.00;;
58071;SDS011;60383;46.626;18.866;2023-07-02T10:35:38;2.50;;;1.95;;
58071;SDS011;60383;46.626;18.866;2023-07-02T10:38:06;2.67;;;2.33;;
58071;SDS011;60383;46.626;18.866;2023-07-02T10:40:32;3.08;;;2.17;;
58071;SDS011;60383;46.626;18.866;2023-07-02T10:42:58;2.53;;;1.98;;
58071;SDS011;60383;46.626;18.866;2023-07-02T10:45:31;2.38;;;2.13;;
58071;SDS011;60383;46.626;18.866;2023-07-02T10:48:04;2.90;;;2.00;;
58071;SDS011;60383;46.626;18.866;2023-07-02T10:50:33;2.28;;;2.00;;
58071;SDS011;60383;46.626;18.866;2023-07-02T10:52:59;2.58;;;2.03;;
58071;SDS011;60383;46.626;18.866;2023-07-02T10:55:25;2.42;;;2.15;;
58071;SDS011;60383;46.626;18.866;2023-07-02T10:58:02;2.35;;;2.15;;
58071;SDS011;60383;46.626;18.866;2023-07-02T11:00:31;2.63;;;2.00;;
58071;SDS011;60383;46.626;18.866;2023-07-02T11:02:57;4.65;;;2.20;;
58071;SDS011;60383;46.626;18.866;2023-07-02T11:05:23;3.28;;;2.25;;
58071;SDS011;60383;46.626;18.866;2023-07-02T11:07:48;2.85;;;2.15;;
58071;SDS011;60383;46.626;18.866;2023-07-02T11:10:22;3.00;;;2.08;;
58071;SDS011;60383;46.626;18.866;2023-07-02T11:12:48;3.33;;;2.03;;
58071;SDS011;60383;46.626;18.866;2023-07-02T11:15:14;2.47;;;2.20;;
58071;SDS011;60383;46.626;18.866;2023-07-02T11:17:42;2.83;;;2.25;;
58071;SDS011;60383;46.626;18.866;2023-07-02T11:20:08;3.33;;;2.05;;
58071;SDS011;60383;46.626;18.866;2023-07-02T11:22:34;3.03;;;2.28;;
58071;SDS011;60383;46.626;18.866;2023-07-02T11:25:14;3.30;;;2.33;;
58071;SDS011;60383;46.626;18.866;2023-07-02T11:27:41;2.28;;;2.08;;
58071;SDS011;60383;46.626;18.866;2023-07-02T11:30:07;2.75;;;1.88;;
58071;SDS011;60383;46.626;18.866;2023-07-02T11:32:52;3.00;;;2.33;;
58071;SDS011;60383;46.626;18.866;2023-07-02T11:35:19;3.20;;;2.35;;
58071;SDS011;60383;46.626;18.866;2023-07-02T11:37:46;1.90;;;1.75;;
58071;SDS011;60383;46.626;18.866;2023-07-02T11:40:13;4.45;;;2.20;;
58071;SDS011;60383;46.626;18.866;2023-07-02T11:42:39;3.28;;;2.00;;
58071;SDS011;60383;46.626;18.866;2023-07-02T11:45:04;2.47;;;2.03;;
58071;SDS011;60383;46.626;18.866;2023-07-02T11:47:30;2.40;;;1.80;;
58071;SDS011;60383;46.626;18.866;2023-07-02T11:49:56;2.78;;;1.95;;
58071;SDS011;60383;46.626;18.866;2023-07-02T11:52:21;2.88;;;1.90;;
58071;SDS011;60383;46.626;18.866;2023-07-02T11:54:48;2.60;;;1.85;;
58071;SDS011;60383;46.626;18.866;2023-07-02T11:57:13;1.75;;;1.65;;
58071;SDS011;60383;46.626;18.866;2023-07-02T11:59:38;1.88;;;1.73;;
58071;SDS011;60383;46.626;18.866;2023-07-02T12:02:04;2.97;;;1.90;;
58071;SDS011;60383;46.626;18.866;2023-07-02T12:04:30;2.13;;;1.65;;
58071;SDS011;60383;46.626;18.866;2023-07-02T12:06:56;2.10;;;1.83;;
58071;SDS011;60383;46.626;18.866;2023-07-02T12:09:22;2.08;;;1.73;;
58071;SDS011;60383;46.626;18.866;2023-07-02T12:11:47;2.65;;;2.00;;
58071;SDS011;60383;46.626;18.866;2023-07-02T12:14:13;2.15;;;1.80;;
58071;SDS011;60383;46.626;18.866;2023-07-02T12:16:38;2.42;;;1.70;;
58071;SDS011;60383;46.626;18.866;2023-07-02T12:19:04;2.72;;;1.70;;
58071;SDS011;60383;46.626;18.866;2023-07-02T12:21:29;1.80;;;1.70;;
58071;SDS011;60383;46.626;18.866;2023-07-02T12:23:55;1.85;;;1.55;;
58071;SDS011;60383;46.626;18.866;2023-07-02T12:26:20;3.28;;;1.50;;
58071;SDS011;60383;46.626;18.866;2023-07-02T12:28:46;3.08;;;1.95;;
58071;SDS011;60383;46.626;18.866;2023-07-02T12:31:11;2.20;;;1.80;;
58071;SDS011;60383;46.626;18.866;2023-07-02T12:33:38;1.98;;;1.58;;
58071;SDS011;60383;46.626;18.866;2023-07-02T12:36:04;2.15;;;1.60;;
58071;SDS011;60383;46.626;18.866;2023-07-02T12:38:29;2.83;;;1.50;;
58071;SDS011;60383;46.626;18.866;2023-07-02T12:40:55;2.03;;;1.60;;
58071;SDS011;60383;46.626;18.866;2023-07-02T12:43:20;1.65;;;1.55;;
58071;SDS011;60383;46.626;18.866;2023-07-02T12:45:46;1.58;;;1.48;;
58071;SDS011;60383;46.626;18.866;2023-07-02T12:48:12;1.42;;;1.20;;
58071;SDS011;60383;46.626;18.866;2023-07-02T12:50:37;1.65;;;1.30;;
58071;SDS011;60383;46.626;18.866;2023-07-02T12:53:04;1.40;;;1.30;;
58071;SDS011;60383;46.626;18.866;2023-07-02T12:55:30;1.95;;;1.30;;
58071;SDS011;60383;46.626;18.866;2023-07-02T12:57:55;1.45;;;1.20;;
58071;SDS011;60383;46.626;18.866;2023-07-02T13:00:21;3.28;;;1.60;;
58071;SDS011;60383;46.626;18.866;2023-07-02T13:02:47;1.60;;;1.25;;
58071;SDS011;60383;46.626;18.866;2023-07-02T13:05:13;1.67;;;1.30;;
58071;SDS011;60383;46.626;18.866;2023-07-02T13:07:39;1.23;;;1.10;;
58071;SDS011;60383;46.626;18.866;2023-07-02T13:10:04;1.50;;;1.30;;
58071;SDS011;60383;46.626;18.866;2023-07-02T13:12:31;1.20;;;1.10;;
58071;SDS011;60383;46.626;18.866;2023-07-02T13:14:56;1.50;;;0.90;;
58071;SDS011;60383;46.626;18.866;2023-07-02T13:17:23;1.40;;;1.10;;
58071;SDS011;60383;46.626;18.866;2023-07-02T13:19:48;1.35;;;1.10;;
58071;SDS011;60383;46.626;18.866;2023-07-02T13:22:14;0.95;;;0.85;;
58071;SDS011;60383;46.626;18.866;2023-07-02T13:24:40;1.23;;;1.00;;
58071;SDS011;60383;46.626;18.866;2023-07-02T13:27:07;1.45;;;1.00;;
58071;SDS011;60383;46.626;18.866;2023-07-02T13:29:36;1.30;;;1.20;;
58071;SDS011;60383;46.626;18.866;2023-07-02T13:32:01;3.08;;;1.00;;
58071;SDS011;60383;46.626;18.866;2023-07-02T13:34:27;1.08;;;0.80;;
58071;SDS011;60383;46.626;18.866;2023-07-02T13:36:52;0.70;;;0.70;;
58071;SDS011;60383;46.626;18.866;2023-07-02T13:39:18;0.80;;;0.80;;
58071;SDS011;60383;46.626;18.866;2023-07-02T13:41:43;1.45;;;1.10;;
58071;SDS011;60383;46.626;18.866;2023-07-02T13:44:09;0.88;;;0.88;;
58071;SDS011;60383;46.626;18.866;2023-07-02T13:46:34;1.13;;;1.00;;
58071;SDS011;60383;46.626;18.866;2023-07-02T13:49:00;1.73;;;0.93;;
58071;SDS011;60383;46.626;18.866;2023-07-02T13:51:25;1.00;;;0.90;;
58071;SDS011;60383;46.626;18.866;2023-07-02T13:53:51;0.93;;;0.80;;
58071;SDS011;60383;46.626;18.866;2023-07-02T13:56:16;0.90;;;0.90;;
58071;SDS011;60383;46.626;18.866;2023-07-02T13:58:46;0.98;;;0.95;;
58071;SDS011;60383;46.626;18.866;2023-07-02T14:01:21;3.42;;;1.10;;
58071;SDS011;60383;46.626;18.866;2023-07-02T14:03:47;1.23;;;1.13;;
58071;SDS011;60383;46.626;18.866;2023-07-02T14:06:16;1.30;;;1.00;;
58071;SDS011;60383;46.626;18.866;2023-07-02T14:08:42;1.15;;;0.95;;
58071;SDS011;60383;46.626;18.866;2023-07-02T14:11:07;1.17;;;1.08;;
58071;SDS011;60383;46.626;18.866;2023-07-02T14:13:33;1.42;;;1.08;;
58071;SDS011;60383;46.626;18.866;2023-07-02T14:15:59;1.35;;;1.08;;
58071;SDS011;60383;46.626;18.866;2023-07-02T14:18:25;1.30;;;0.95;;
58071;SDS011;60383;46.626;18.866;2023-07-02T14:20:50;1.23;;;1.00;;
58071;SDS011;60383;46.626;18.866;2023-07-02T14:23:16;1.35;;;1.20;;
58071;SDS011;60383;46.626;18.866;2023-07-02T14:25:42;1.10;;;1.00;;
58071;SDS011;60383;46.626;18.866;2023-07-02T14:28:08;1.45;;;1.20;;
58071;SDS011;60383;46.626;18.866;2023-07-02T14:30:34;1.17;;;1.08;;
58071;SDS011;60383;46.626;18.866;2023-07-02T14:32:59;1.02;;;0.98;;
58071;SDS011;60383;46.626;18.866;2023-07-02T14:35:25;1.52;;;1.30;;